createdAt,value
2018-07-19T00:00:36.693Z,22.60
2018-07-19T00:03:05.858Z,22.50
2018-07-19T00:05:35.034Z,22.60
2018-07-19T00:08:04.253Z,22.70
2018-07-19T00:10:33.337Z,22.70
2018-07-19T00:13:02.504Z,22.70
2018-07-19T00:15:31.626Z,22.70
2018-07-19T00:18:00.738Z,22.70
2018-07-19T00:20:29.932Z,22.70
2018-07-19T00:22:59.084Z,22.60
2018-07-19T00:25:28.198Z,22.70
2018-07-19T00:27:57.318Z,22.50
2018-07-19T00:30:26.480Z,22.50
2018-07-19T00:32:55.652Z,22.50
2018-07-19T00:35:24.838Z,22.50
2018-07-19T00:37:53.985Z,22.30
2018-07-19T00:40:23.157Z,22.00
2018-07-19T00:42:52.383Z,22.00
2018-07-19T00:45:21.527Z,21.90
2018-07-19T00:47:50.675Z,22.10
2018-07-19T00:50:19.829Z,22.00
2018-07-19T00:52:49.036Z,21.90
2018-07-19T00:55:18.162Z,21.90
2018-07-19T00:57:47.306Z,22.00
2018-07-19T01:00:16.476Z,22.10
2018-07-19T01:02:45.566Z,22.00
2018-07-19T01:05:14.745Z,22.00
2018-07-19T01:07:43.864Z,22.00
2018-07-19T01:10:13.022Z,21.90
2018-07-19T01:15:10.857Z,21.70
2018-07-19T01:17:40.037Z,21.50
2018-07-19T01:20:09.173Z,21.50
2018-07-19T01:22:38.366Z,21.50
2018-07-19T01:25:07.776Z,21.60
2018-07-19T01:27:36.900Z,21.60
2018-07-19T01:30:06.501Z,21.60
2018-07-19T01:32:35.901Z,21.60
2018-07-19T01:35:05.152Z,21.50
2018-07-19T01:37:34.309Z,21.50
2018-07-19T01:40:03.465Z,21.50
2018-07-19T01:42:35.424Z,21.50
2018-07-19T01:45:05.853Z,21.60
2018-07-19T01:47:35.017Z,21.60
2018-07-19T01:50:04.634Z,21.70
2018-07-19T01:52:33.793Z,21.60
2018-07-19T01:55:02.999Z,21.60
2018-07-19T01:57:32.157Z,21.60
2018-07-19T02:00:01.356Z,21.60
2018-07-19T02:02:30.505Z,21.60
2018-07-19T02:04:59.725Z,21.40
2018-07-19T02:07:28.857Z,21.30
2018-07-19T02:09:58.008Z,21.20
2018-07-19T02:12:27.177Z,21.00
2018-07-19T02:14:56.329Z,21.00
2018-07-19T02:17:25.527Z,20.90
2018-07-19T02:19:54.681Z,21.10
2018-07-19T02:22:23.827Z,20.90
2018-07-19T02:24:52.940Z,20.80
2018-07-19T02:27:22.138Z,21.00
2018-07-19T02:29:51.266Z,21.10
2018-07-19T02:32:20.403Z,20.90
2018-07-19T02:34:49.660Z,20.90
2018-07-19T02:37:18.841Z,21.10
2018-07-19T02:39:47.994Z,21.10
2018-07-19T02:42:17.087Z,21.20
2018-07-19T02:44:46.326Z,21.10
2018-07-19T02:47:15.510Z,21.10
2018-07-19T02:49:44.662Z,21.10
2018-07-19T02:52:13.801Z,21.10
2018-07-19T02:54:43.001Z,21.10
2018-07-19T02:57:12.161Z,21.10
2018-07-19T02:59:41.309Z,20.80
2018-07-19T03:02:10.438Z,21.00
2018-07-19T03:04:39.589Z,20.80
2018-07-19T03:07:08.775Z,20.80
2018-07-19T03:09:37.878Z,20.80
2018-07-19T03:12:07.186Z,20.70
2018-07-19T03:14:36.317Z,20.90
2018-07-19T03:17:05.597Z,20.80
2018-07-19T03:19:34.881Z,20.90
2018-07-19T03:22:04.041Z,20.80
2018-07-19T03:24:33.197Z,20.80
2018-07-19T03:27:02.405Z,20.80
2018-07-19T03:29:31.513Z,20.80
2018-07-19T03:32:00.692Z,20.60
2018-07-19T03:34:29.819Z,20.60
2018-07-19T03:36:58.944Z,20.70
2018-07-19T03:39:28.097Z,20.70
2018-07-19T03:41:57.355Z,20.70
2018-07-19T03:44:26.737Z,20.70
2018-07-19T03:46:55.864Z,20.60
2018-07-19T03:49:25.076Z,20.60
2018-07-19T03:51:54.229Z,20.60
2018-07-19T03:54:23.356Z,20.60
2018-07-19T03:56:52.555Z,20.70
2018-07-19T03:59:21.702Z,20.70
2018-07-19T04:01:50.898Z,20.60
2018-07-19T04:04:20.001Z,20.60
2018-07-19T04:06:49.216Z,20.60
2018-07-19T04:09:18.332Z,20.60
2018-07-19T04:11:47.454Z,20.60
2018-07-19T04:14:16.599Z,20.60
2018-07-19T04:16:45.730Z,20.60
2018-07-19T04:19:14.861Z,20.40
2018-07-19T04:21:44.010Z,20.50
2018-07-19T04:24:13.187Z,20.60
2018-07-19T04:26:42.412Z,20.60
2018-07-19T04:29:11.658Z,20.50
2018-07-19T04:31:40.781Z,20.50
2018-07-19T04:34:09.954Z,20.50
2018-07-19T04:36:39.112Z,20.40
2018-07-19T04:39:09.014Z,20.50
2018-07-19T04:41:38.219Z,20.60
2018-07-19T04:44:07.391Z,20.60
2018-07-19T04:46:36.549Z,20.60
2018-07-19T04:49:05.710Z,20.60
2018-07-19T04:51:34.895Z,20.50
2018-07-19T04:54:04.102Z,20.60
2018-07-19T04:56:33.326Z,20.60
2018-07-19T04:59:02.692Z,20.70
2018-07-19T05:01:31.854Z,20.60
2018-07-19T05:04:01.052Z,20.40
2018-07-19T05:06:30.162Z,20.40
2018-07-19T05:08:59.341Z,20.50
2018-07-19T05:11:28.516Z,20.50
2018-07-19T05:13:57.751Z,20.50
2018-07-19T05:16:26.897Z,20.70
2018-07-19T05:18:56.072Z,20.80
2018-07-19T05:21:25.245Z,20.80
2018-07-19T05:23:54.583Z,20.80
2018-07-19T05:26:23.706Z,20.90
2018-07-19T05:28:52.862Z,21.00
2018-07-19T05:31:22.010Z,21.00
2018-07-19T05:33:51.152Z,20.80
2018-07-19T05:36:20.350Z,20.90
2018-07-19T05:38:49.554Z,20.90
2018-07-19T05:41:18.785Z,20.90
2018-07-19T05:43:47.950Z,21.00
2018-07-19T05:46:17.271Z,21.00
2018-07-19T05:51:15.120Z,20.90
2018-07-19T05:53:44.336Z,20.80
2018-07-19T05:56:14.266Z,20.80
2018-07-19T05:58:43.418Z,20.80
2018-07-19T06:01:12.555Z,20.90
2018-07-19T06:03:41.810Z,20.90
2018-07-19T06:06:10.992Z,21.00
2018-07-19T06:08:40.211Z,21.10
2018-07-19T06:11:09.411Z,21.10
2018-07-19T06:13:38.553Z,21.10
2018-07-19T06:16:07.853Z,21.20
2018-07-19T06:18:37.102Z,21.20
2018-07-19T06:21:06.277Z,21.30
2018-07-19T06:23:35.545Z,21.50
2018-07-19T06:26:04.837Z,21.70
2018-07-19T06:28:34.202Z,22.10
2018-07-19T06:31:03.512Z,22.50
2018-07-19T06:33:32.694Z,22.50
2018-07-19T06:36:01.838Z,22.60
2018-07-19T06:38:30.993Z,22.50
2018-07-19T06:41:00.203Z,22.70
2018-07-19T06:43:29.495Z,22.80
2018-07-19T06:45:58.674Z,23.00
2018-07-19T06:48:27.950Z,23.50
2018-07-19T06:50:57.174Z,23.80
2018-07-19T06:53:26.377Z,23.90
2018-07-19T06:55:55.531Z,24.50
2018-07-19T06:58:24.855Z,24.60
2018-07-19T07:01:00.688Z,24.90
2018-07-19T07:03:31.930Z,25.00
2018-07-19T07:06:01.063Z,25.30
2018-07-19T07:08:30.277Z,26.10
2018-07-19T07:10:59.425Z,26.90
2018-07-19T07:13:28.579Z,27.00
2018-07-19T07:15:57.822Z,27.10
2018-07-19T07:18:27.111Z,27.40
2018-07-19T07:20:56.252Z,27.60
2018-07-19T07:23:25.446Z,27.90
2018-07-19T07:25:55.624Z,28.40
2018-07-19T07:28:25.968Z,29.00
2018-07-19T07:30:55.155Z,29.40
2018-07-19T07:33:24.324Z,29.40
2018-07-19T07:35:53.501Z,29.80
2018-07-19T07:38:23.027Z,30.20
2018-07-19T07:40:52.310Z,30.70
2018-07-19T07:43:21.606Z,30.70
2018-07-19T07:45:50.857Z,30.90
2018-07-19T07:48:20.000Z,31.60
2018-07-19T07:50:49.205Z,32.10
2018-07-19T07:53:18.303Z,32.00
2018-07-19T07:55:47.485Z,32.50
2018-07-19T07:58:16.631Z,33.10
2018-07-19T08:00:45.792Z,33.20
2018-07-19T08:03:15.002Z,33.40
2018-07-19T08:05:44.261Z,33.70
2018-07-19T08:08:13.411Z,33.70
2018-07-19T08:10:42.536Z,34.20
2018-07-19T08:13:11.733Z,34.40
2018-07-19T08:15:40.906Z,34.90
2018-07-19T08:18:10.146Z,35.00
2018-07-19T08:20:39.281Z,35.40
2018-07-19T08:28:06.700Z,34.90
2018-07-19T08:30:36.644Z,35.20
2018-07-19T08:33:05.971Z,35.00
2018-07-19T08:35:35.207Z,34.90
2018-07-19T08:38:04.810Z,35.70
2018-07-19T08:40:34.121Z,35.20
2018-07-19T08:45:32.184Z,34.50
2018-07-19T08:48:01.396Z,34.40
2018-07-19T08:50:30.577Z,33.60
2018-07-19T08:52:59.761Z,33.20
2018-07-19T08:55:29.029Z,33.20
2018-07-19T08:57:58.226Z,32.60
2018-07-19T09:00:27.410Z,31.50
2018-07-19T09:02:56.645Z,31.30
2018-07-19T09:05:25.871Z,31.30
2018-07-19T09:07:55.166Z,31.00
2018-07-19T09:10:24.424Z,30.60
2018-07-19T09:12:53.565Z,29.80
2018-07-19T09:15:22.821Z,28.80
2018-07-19T09:17:52.074Z,28.00
2018-07-19T09:20:21.275Z,27.60
2018-07-19T09:22:50.492Z,27.30
2018-07-19T09:25:19.730Z,27.20
2018-07-19T09:27:48.861Z,27.00
2018-07-19T09:30:18.083Z,27.10
2018-07-19T09:32:47.409Z,27.60
2018-07-19T09:35:16.683Z,28.00
2018-07-19T09:37:46.118Z,27.90
2018-07-19T09:40:15.445Z,27.80
2018-07-19T09:42:44.617Z,28.00
2018-07-19T09:45:13.834Z,27.70
2018-07-19T09:47:43.032Z,27.60
2018-07-19T09:50:12.708Z,27.40
2018-07-19T09:52:42.794Z,27.20
2018-07-19T09:55:11.879Z,27.20
2018-07-19T09:57:41.081Z,27.40
2018-07-19T10:00:10.401Z,27.40
2018-07-19T10:02:39.592Z,27.60
2018-07-19T10:05:08.798Z,27.60
2018-07-19T10:07:38.127Z,27.40
2018-07-19T10:10:07.383Z,27.20
2018-07-19T10:12:36.638Z,27.20
2018-07-19T10:15:05.865Z,27.20
2018-07-19T10:17:35.010Z,27.30
2018-07-19T10:20:04.522Z,27.40
2018-07-19T10:22:33.673Z,27.60
2018-07-19T10:25:02.838Z,27.60
2018-07-19T10:27:32.086Z,27.30
2018-07-19T10:30:01.350Z,27.30
2018-07-19T10:32:30.634Z,27.20
2018-07-19T10:34:59.829Z,27.20
2018-07-19T10:37:29.091Z,27.40
2018-07-19T10:39:58.222Z,27.70
2018-07-19T10:42:28.318Z,28.00
2018-07-19T10:44:57.582Z,28.10
2018-07-19T10:47:26.774Z,27.80
2018-07-19T10:49:56.099Z,27.70
2018-07-19T10:52:25.511Z,27.80
2018-07-19T10:54:54.652Z,27.90
2018-07-19T10:57:23.856Z,28.00
2018-07-19T10:59:52.999Z,28.10
2018-07-19T11:02:22.214Z,28.10
2018-07-19T11:04:51.334Z,28.20
2018-07-19T11:07:20.477Z,28.10
2018-07-19T11:09:49.868Z,28.10
2018-07-19T11:12:19.010Z,28.10
2018-07-19T11:14:48.106Z,28.00
2018-07-19T11:17:17.261Z,27.80
2018-07-19T11:19:46.408Z,27.90
2018-07-19T11:22:15.598Z,28.10
2018-07-19T11:24:45.346Z,28.00
2018-07-19T11:27:15.274Z,27.90
2018-07-19T11:29:44.471Z,27.80
2018-07-19T11:32:13.612Z,27.60
2018-07-19T11:34:42.801Z,27.60
2018-07-19T11:37:12.051Z,27.50
2018-07-19T11:39:41.250Z,27.70
2018-07-19T11:42:10.921Z,27.80
2018-07-19T11:44:40.202Z,28.00
2018-07-19T11:47:09.468Z,28.30
2018-07-19T11:49:38.653Z,28.40
2018-07-19T11:52:07.798Z,28.60
2018-07-19T11:54:36.940Z,28.70
2018-07-19T11:57:06.173Z,28.50
2018-07-19T11:59:35.436Z,28.40
2018-07-19T12:02:04.632Z,28.30
2018-07-19T12:04:33.779Z,28.20
2018-07-19T12:07:02.984Z,28.30
2018-07-19T12:09:32.121Z,28.30
2018-07-19T12:12:01.315Z,28.30
2018-07-19T12:14:30.524Z,28.30
2018-07-19T12:16:59.739Z,28.40
2018-07-19T12:19:28.941Z,28.50
2018-07-19T12:21:58.240Z,28.50
2018-07-19T12:24:27.384Z,28.70
2018-07-19T12:26:56.561Z,28.70
2018-07-19T12:29:25.661Z,28.80
2018-07-19T12:31:54.873Z,28.90
2018-07-19T12:34:24.069Z,28.90
2018-07-19T12:36:53.240Z,28.80
2018-07-19T12:39:22.379Z,28.80
2018-07-19T12:41:51.534Z,28.80
2018-07-19T12:44:20.689Z,28.60
2018-07-19T12:46:49.890Z,28.50
2018-07-19T12:49:19.491Z,28.60
2018-07-19T12:51:48.649Z,28.50
2018-07-19T12:54:17.770Z,28.50
2018-07-19T12:56:46.987Z,28.30
2018-07-19T12:59:16.167Z,28.30
2018-07-19T13:01:45.453Z,28.50
2018-07-19T13:04:14.568Z,28.70
2018-07-19T13:06:43.697Z,28.80
2018-07-19T13:09:12.861Z,28.90
2018-07-19T13:11:42.166Z,28.90
2018-07-19T13:14:12.033Z,28.80
2018-07-19T13:16:41.389Z,28.80
2018-07-19T13:19:10.481Z,28.90
2018-07-19T13:21:39.774Z,29.00
2018-07-19T13:24:09.208Z,29.00
2018-07-19T13:26:38.534Z,28.80
2018-07-19T13:29:07.733Z,28.80
2018-07-19T13:31:36.869Z,28.90
2018-07-19T13:34:06.258Z,28.80
2018-07-19T13:36:35.533Z,28.70
2018-07-19T13:39:07.325Z,28.80
2018-07-19T13:41:36.618Z,28.80
2018-07-19T13:44:06.082Z,28.90
2018-07-19T13:46:35.277Z,28.90
2018-07-19T13:49:04.489Z,28.90
2018-07-19T13:51:33.618Z,28.80
2018-07-19T13:54:10.828Z,28.80
2018-07-19T13:56:40.329Z,28.70
2018-07-19T13:59:09.460Z,28.80
2018-07-19T14:01:38.877Z,28.80
2018-07-19T14:04:08.415Z,28.80
2018-07-19T14:06:37.579Z,28.80
2018-07-19T14:09:08.747Z,28.80
2018-07-19T14:11:37.972Z,28.80
2018-07-19T14:14:07.174Z,28.70
2018-07-19T14:16:36.264Z,28.50
2018-07-19T14:19:05.801Z,28.60
2018-07-19T14:21:35.186Z,28.70
2018-07-19T14:24:04.601Z,28.70
2018-07-19T14:26:34.418Z,28.90
2018-07-19T14:29:04.123Z,28.80
2018-07-19T14:31:33.401Z,28.80
2018-07-19T14:34:02.506Z,28.90
2018-07-19T14:36:31.708Z,28.90
2018-07-19T14:39:00.818Z,28.90
2018-07-19T14:41:30.165Z,28.80
2018-07-19T14:43:59.468Z,28.90
2018-07-19T14:48:57.533Z,28.90
2018-07-19T14:51:26.646Z,28.90
2018-07-19T14:53:55.861Z,28.90
2018-07-19T14:56:24.998Z,28.80
2018-07-19T14:58:54.265Z,28.80
2018-07-19T15:01:23.413Z,28.80
2018-07-19T15:03:52.547Z,28.80
2018-07-19T15:06:21.717Z,28.90
2018-07-19T15:08:50.882Z,28.90
2018-07-19T15:11:20.075Z,28.80
2018-07-19T15:13:49.192Z,28.90
2018-07-19T15:16:18.584Z,28.90
2018-07-19T15:18:47.803Z,28.90
2018-07-19T15:21:16.929Z,29.00
2018-07-19T15:23:46.120Z,28.90
2018-07-19T15:26:15.269Z,28.80
2018-07-19T15:28:44.479Z,28.80
2018-07-19T15:31:13.629Z,28.80
2018-07-19T15:33:42.807Z,28.70
2018-07-19T15:36:12.019Z,28.70
2018-07-19T15:38:41.204Z,28.80
2018-07-19T15:41:10.385Z,28.80
2018-07-19T15:43:39.468Z,28.70
2018-07-19T15:46:08.590Z,28.80
2018-07-19T15:48:37.789Z,28.70
2018-07-19T15:51:07.109Z,28.80
2018-07-19T15:53:36.269Z,28.70
2018-07-19T15:56:05.596Z,28.70
2018-07-19T15:58:34.730Z,28.70
2018-07-19T16:01:04.073Z,28.70
2018-07-19T16:03:33.226Z,28.70
2018-07-19T16:06:03.398Z,28.70
2018-07-19T16:08:32.546Z,28.50
2018-07-19T16:11:01.683Z,28.50
2018-07-19T16:13:30.857Z,28.50
2018-07-19T16:16:00.071Z,28.50
2018-07-19T16:20:57.914Z,28.50
2018-07-19T16:23:27.183Z,28.50
2018-07-19T16:25:57.311Z,28.50
2018-07-19T16:28:26.468Z,28.40
2018-07-19T16:30:55.704Z,28.50
2018-07-19T16:33:25.089Z,28.40
2018-07-19T16:35:54.257Z,28.40
2018-07-19T16:38:23.553Z,28.40
2018-07-19T16:40:52.834Z,28.40
2018-07-19T16:43:21.908Z,28.50
2018-07-19T16:45:51.094Z,28.40
2018-07-19T16:48:20.676Z,28.40
2018-07-19T16:50:49.963Z,28.40
2018-07-19T16:53:19.197Z,28.30
2018-07-19T16:55:48.406Z,28.30
2018-07-19T16:58:17.730Z,28.30
2018-07-19T17:00:46.895Z,28.30
2018-07-19T17:03:16.099Z,28.30
2018-07-19T17:05:45.388Z,28.20
2018-07-19T17:08:14.695Z,28.10
2018-07-19T17:10:43.968Z,28.10
2018-07-19T17:13:13.734Z,28.00
2018-07-19T17:15:42.993Z,28.00
2018-07-19T17:18:12.205Z,28.10
2018-07-19T17:20:41.472Z,28.10
2018-07-19T17:23:10.685Z,28.10
2018-07-19T17:25:39.889Z,28.00
2018-07-19T17:28:09.610Z,28.00
2018-07-19T17:30:38.770Z,28.00
2018-07-19T17:33:08.504Z,28.00
2018-07-19T17:35:38.248Z,28.00
2018-07-19T17:38:07.443Z,28.00
2018-07-19T17:40:36.658Z,28.00
2018-07-19T17:43:06.226Z,27.90
2018-07-19T17:45:36.414Z,27.90
2018-07-19T17:48:06.586Z,27.80
2018-07-19T17:50:36.118Z,27.80
2018-07-19T17:53:05.778Z,27.70
2018-07-19T17:55:35.962Z,27.60
2018-07-19T17:58:05.203Z,27.60
2018-07-19T18:00:34.370Z,27.60
2018-07-19T18:03:03.549Z,27.50
2018-07-19T18:05:32.763Z,27.40
2018-07-19T18:08:01.977Z,27.50
2018-07-19T18:10:31.101Z,27.40
2018-07-19T18:13:00.269Z,27.40
2018-07-19T18:15:29.378Z,27.30
2018-07-19T18:17:58.534Z,27.40
2018-07-19T18:20:27.758Z,27.30
2018-07-19T18:22:58.041Z,27.30
2018-07-19T18:25:27.594Z,27.20
2018-07-19T18:27:56.806Z,27.20
2018-07-19T18:30:27.006Z,27.20
2018-07-19T18:33:00.826Z,27.20
2018-07-19T18:35:33.850Z,27.20
2018-07-19T18:38:12.357Z,27.20
2018-07-19T18:40:43.302Z,27.20
2018-07-19T18:43:12.650Z,27.20
2018-07-19T18:45:42.365Z,27.20
2018-07-19T18:48:12.231Z,27.10
2018-07-19T18:53:10.686Z,27.10
2018-07-19T18:55:41.728Z,27.10
2018-07-19T18:58:11.233Z,27.10
2018-07-19T19:00:40.863Z,27.00
2018-07-19T19:03:10.071Z,27.00
2018-07-19T19:05:39.295Z,27.00
2018-07-19T19:08:08.608Z,27.00
2018-07-19T19:10:38.336Z,26.90
2018-07-19T19:13:08.324Z,26.90
2018-07-19T19:15:37.961Z,26.80
2018-07-19T19:18:07.271Z,26.80
2018-07-19T19:20:39.455Z,26.80
2018-07-19T19:23:09.939Z,26.70
2018-07-19T19:25:39.618Z,26.70
2018-07-19T19:28:09.020Z,26.60
2018-07-19T19:30:38.264Z,26.60
2018-07-19T19:33:07.460Z,26.60
2018-07-19T19:35:36.667Z,26.60
2018-07-19T19:38:05.943Z,26.50
2018-07-19T19:40:35.121Z,26.40
2018-07-19T19:43:04.425Z,26.40
2018-07-19T19:45:33.650Z,26.40
2018-07-19T19:48:03.176Z,26.30
2018-07-19T19:50:32.592Z,26.30
2018-07-19T19:53:02.794Z,26.20
2018-07-19T19:55:32.831Z,26.30
2018-07-19T20:00:31.040Z,26.20
2018-07-19T20:03:00.353Z,26.20
2018-07-19T20:05:29.831Z,26.20
2018-07-19T20:07:59.037Z,26.20
2018-07-19T20:10:28.274Z,26.20
2018-07-19T20:12:57.506Z,26.10
2018-07-19T20:15:27.551Z,26.10
2018-07-19T20:17:56.854Z,26.10
2018-07-19T20:20:26.206Z,26.00
2018-07-19T20:22:55.401Z,25.90
2018-07-19T20:25:25.346Z,25.80
2018-07-19T20:27:54.758Z,25.80
2018-07-19T20:30:23.926Z,25.80
2018-07-19T20:32:53.597Z,25.80
2018-07-19T20:35:22.764Z,25.70
2018-07-19T20:37:52.264Z,25.70
2018-07-19T20:40:21.541Z,25.70
2018-07-19T20:42:50.775Z,25.70
2018-07-19T20:45:20.330Z,25.70
2018-07-19T20:47:49.876Z,25.70
2018-07-19T20:50:19.073Z,25.60
2018-07-19T20:52:48.317Z,25.60
2018-07-19T20:55:17.537Z,25.50
2018-07-19T20:57:46.724Z,25.40
2018-07-19T21:00:16.020Z,25.40
2018-07-19T21:02:45.530Z,25.40
2018-07-19T21:05:14.766Z,25.40
2018-07-19T21:07:44.235Z,25.30
2018-07-19T21:10:13.583Z,25.30
2018-07-19T21:12:42.883Z,25.20
2018-07-19T21:15:12.073Z,25.20
2018-07-19T21:17:41.336Z,25.20
2018-07-19T21:20:10.718Z,25.10
2018-07-19T21:22:39.963Z,25.10
2018-07-19T21:25:09.202Z,25.00
2018-07-19T21:27:38.514Z,25.20
2018-07-19T21:30:08.097Z,25.20
2018-07-19T21:32:37.308Z,25.20
2018-07-19T21:35:06.693Z,25.20
2018-07-19T21:37:35.969Z,25.20
2018-07-19T21:40:05.272Z,25.10
2018-07-19T21:42:34.527Z,25.00
2018-07-19T21:45:03.835Z,24.90
2018-07-19T21:47:33.033Z,24.80
2018-07-19T21:50:02.361Z,24.70
2018-07-19T21:52:31.718Z,24.70
2018-07-19T21:55:00.969Z,24.50
2018-07-19T21:57:30.200Z,24.40
2018-07-19T21:59:59.430Z,24.20
2018-07-19T22:02:28.616Z,24.30
2018-07-19T22:04:57.972Z,24.10
2018-07-19T22:07:27.221Z,24.10
2018-07-19T22:09:56.543Z,24.10
2018-07-19T22:12:25.826Z,24.10
2018-07-19T22:14:55.063Z,24.00
2018-07-19T22:17:25.208Z,24.10
2018-07-19T22:19:54.422Z,24.00
2018-07-19T22:24:52.698Z,23.90
2018-07-19T22:27:22.258Z,24.00
2018-07-19T22:29:51.654Z,24.20
2018-07-19T22:32:20.895Z,24.20
2018-07-19T22:34:50.133Z,24.10
2018-07-19T22:37:19.395Z,24.00
2018-07-19T22:39:48.616Z,23.90
2018-07-19T22:42:17.840Z,24.00
2018-07-19T22:44:47.106Z,23.90
2018-07-19T22:49:45.309Z,23.90
2018-07-19T22:52:14.453Z,24.00
2018-07-19T22:54:43.759Z,24.00
2018-07-19T22:57:13.071Z,23.90
2018-07-19T22:59:42.293Z,23.70
2018-07-19T23:02:11.517Z,23.70
2018-07-19T23:04:40.752Z,23.70
2018-07-19T23:07:09.969Z,23.70
2018-07-19T23:09:39.221Z,23.50
2018-07-19T23:12:08.516Z,23.50
2018-07-19T23:14:37.759Z,23.60
2018-07-19T23:17:07.016Z,23.60
2018-07-19T23:19:36.351Z,23.70
2018-07-19T23:22:05.883Z,23.40
2018-07-19T23:24:35.122Z,23.30
2018-07-19T23:27:04.457Z,23.00
2018-07-19T23:29:33.956Z,22.90
2018-07-19T23:32:03.880Z,23.00
2018-07-19T23:34:33.090Z,23.10
2018-07-19T23:37:05.985Z,23.30
2018-07-19T23:39:41.828Z,23.30
2018-07-19T23:42:16.709Z,23.20
2018-07-19T23:45:09.555Z,23.10
2018-07-19T23:47:40.848Z,23.10
2018-07-19T23:50:10.041Z,23.00
2018-07-19T23:52:39.292Z,23.00
2018-07-19T23:55:08.549Z,23.00
2018-07-19T23:57:37.790Z,23.00
